createdAt,value
2018-01-04T00:00:10.907Z,45.65
2018-01-04T00:02:39.512Z,44.67
2018-01-04T00:05:07.278Z,41.55
2018-01-04T00:07:35.551Z,38.65
2018-01-04T00:10:03.305Z,39.67
2018-01-04T00:12:31.072Z,38.42
2018-01-04T00:14:58.911Z,37.55
2018-01-04T00:17:26.715Z,35.72
2018-01-04T00:19:54.370Z,37.55
2018-01-04T00:22:21.975Z,36.00
2018-01-04T00:24:49.669Z,36.60
2018-01-04T00:27:18.177Z,35.22
2018-01-04T00:29:46.454Z,34.75
2018-01-04T00:32:14.366Z,37.55
2018-01-04T00:34:41.955Z,35.75
2018-01-04T00:37:09.528Z,35.72
2018-01-04T00:39:37.306Z,35.97
2018-01-04T00:42:04.939Z,36.35
2018-01-04T00:44:32.698Z,32.25
2018-01-04T00:47:00.474Z,36.67
2018-01-04T00:49:28.102Z,35.00
2018-01-04T00:51:56.133Z,39.80
2018-01-04T00:54:24.046Z,41.85
2018-01-04T00:56:51.670Z,48.65
2018-01-04T00:59:19.305Z,47.78
2018-01-04T01:01:46.872Z,53.05
2018-01-04T01:04:14.506Z,54.25
2018-01-04T01:06:42.130Z,50.05
2018-01-04T01:09:10.008Z,45.35
2018-01-04T01:11:37.657Z,44.47
2018-01-04T01:14:05.353Z,48.40
2018-01-04T01:16:33.160Z,51.30
2018-01-04T01:19:00.733Z,52.70
2018-01-04T01:21:33.660Z,51.15
2018-01-04T01:24:01.305Z,50.20
2018-01-04T01:26:28.877Z,50.05
2018-01-04T01:28:56.489Z,46.55
2018-01-04T01:31:24.214Z,45.22
2018-01-04T01:33:52.727Z,42.95
2018-01-04T01:36:20.394Z,42.42
2018-01-04T01:38:47.988Z,38.65
2018-01-04T01:41:15.668Z,39.63
2018-01-04T01:43:43.460Z,43.30
2018-01-04T01:46:11.059Z,46.97
2018-01-04T01:48:39.336Z,48.95
2018-01-04T01:51:06.970Z,47.62
2018-01-04T01:53:34.758Z,47.30
2018-01-04T01:56:02.588Z,45.78
2018-01-04T01:58:30.282Z,47.22
2018-01-04T02:00:57.936Z,47.35
2018-01-04T02:03:25.577Z,47.03
2018-01-04T02:05:53.226Z,52.05
2018-01-04T02:08:20.856Z,49.22
2018-01-04T02:10:48.473Z,45.78
2018-01-04T02:13:16.230Z,40.67
2018-01-04T02:15:44.030Z,36.40
2018-01-04T02:18:23.558Z,34.28
2018-01-04T02:21:02.733Z,32.95
2018-01-04T02:23:42.056Z,32.42
2018-01-04T02:26:09.744Z,31.58
2018-01-04T02:28:49.095Z,33.90
2018-01-04T02:31:28.663Z,49.55
2018-01-04T02:34:08.067Z,50.88
2018-01-04T02:36:47.468Z,48.45
2018-01-04T02:39:26.718Z,44.58
2018-01-04T02:42:06.209Z,43.87
2018-01-04T02:44:43.466Z,40.95
2018-01-04T02:47:11.154Z,40.30
2018-01-04T02:49:38.818Z,36.75
2018-01-04T02:52:06.392Z,37.53
2018-01-04T02:54:33.988Z,38.92
2018-01-04T02:57:01.630Z,40.58
2018-01-04T02:59:29.222Z,38.95
2018-01-04T03:01:57.689Z,39.13
2018-01-04T03:04:25.294Z,42.05
2018-01-04T03:06:53.068Z,38.33
2018-01-04T03:09:20.728Z,38.55
2018-01-04T03:11:49.133Z,37.03
2018-01-04T03:14:17.360Z,37.97
2018-01-04T03:16:45.613Z,38.25
2018-01-04T03:19:13.295Z,38.20
2018-01-04T03:21:48.129Z,43.53
2018-01-04T03:24:16.064Z,38.45
2018-01-04T03:26:49.251Z,41.20
2018-01-04T03:29:33.251Z,41.67
2018-01-04T03:35:18.872Z,40.55
2018-01-04T03:37:51.961Z,42.33
2018-01-04T03:40:25.109Z,39.60
2018-01-04T03:46:02.978Z,40.25
2018-01-04T03:48:30.606Z,40.90
2018-01-04T03:51:03.860Z,39.85
2018-01-04T03:53:36.941Z,40.30
2018-01-04T03:56:10.024Z,40.58
2018-01-04T03:58:43.321Z,42.88
2018-01-04T04:01:16.458Z,45.05
2018-01-04T04:03:44.089Z,44.22
2018-01-04T04:06:17.911Z,42.25
2018-01-04T04:08:45.497Z,42.40
2018-01-04T04:11:13.335Z,37.33
2018-01-04T04:13:41.184Z,36.85
2018-01-04T04:16:08.810Z,36.17
2018-01-04T04:18:36.392Z,36.60
2018-01-04T04:21:04.055Z,37.80
2018-01-04T04:23:32.463Z,38.03
2018-01-04T04:26:00.075Z,38.00
2018-01-04T04:28:27.700Z,37.63
2018-01-04T04:30:55.271Z,36.78
2018-01-04T04:33:23.082Z,34.80
2018-01-04T04:35:50.723Z,38.15
2018-01-04T04:38:18.348Z,37.45
2018-01-04T04:40:46.159Z,35.15
2018-01-04T04:43:13.783Z,35.25
2018-01-04T04:45:41.982Z,33.70
2018-01-04T04:48:10.392Z,34.33
2018-01-04T04:50:38.034Z,33.88
2018-01-04T04:53:05.699Z,35.03
2018-01-04T04:55:33.399Z,34.45
2018-01-04T04:58:00.968Z,37.83
2018-01-04T05:00:28.604Z,35.33
2018-01-04T05:02:56.195Z,36.00
2018-01-04T05:05:23.851Z,30.37
2018-01-04T05:07:51.480Z,27.83
2018-01-04T05:10:19.384Z,25.20
2018-01-04T05:12:47.106Z,26.67
2018-01-04T05:15:14.823Z,24.45
2018-01-04T05:17:42.542Z,24.63
2018-01-04T05:20:10.178Z,27.13
2018-01-04T05:22:37.877Z,26.48
2018-01-04T05:25:05.776Z,26.00
2018-01-04T05:27:33.343Z,26.02
2018-01-04T05:30:00.922Z,28.42
2018-01-04T05:32:28.546Z,36.03
2018-01-04T05:34:56.399Z,36.03
2018-01-04T05:37:23.985Z,38.25
2018-01-04T05:39:51.619Z,37.90
2018-01-04T05:42:19.271Z,37.75
2018-01-04T05:44:46.927Z,39.63
2018-01-04T05:47:14.611Z,38.45
2018-01-04T05:49:42.429Z,37.22
2018-01-04T05:52:10.288Z,39.88
2018-01-04T05:54:38.422Z,41.85
2018-01-04T05:57:07.596Z,46.53
2018-01-04T05:59:35.426Z,48.78
2018-01-04T06:02:03.101Z,48.75
2018-01-04T06:04:31.181Z,47.28
2018-01-04T06:06:58.787Z,45.12
2018-01-04T06:09:26.357Z,45.25
2018-01-04T06:11:54.244Z,50.90
2018-01-04T06:14:23.605Z,46.75
2018-01-04T06:16:51.396Z,49.13
2018-01-04T06:19:19.442Z,48.30
2018-01-04T06:21:48.873Z,48.85
2018-01-04T06:24:17.485Z,43.97
2018-01-04T06:26:45.351Z,42.50
2018-01-04T06:29:13.314Z,40.28
2018-01-04T06:31:41.174Z,41.55
2018-01-04T06:34:09.046Z,40.45
2018-01-04T06:36:38.323Z,42.88
2018-01-04T06:39:05.986Z,41.40
2018-01-04T06:41:33.822Z,41.25
2018-01-04T06:44:02.511Z,42.80
2018-01-04T06:46:31.011Z,43.35
2018-01-04T06:48:58.716Z,43.47
2018-01-04T06:51:26.282Z,41.05
2018-01-04T06:53:54.045Z,37.75
2018-01-04T06:56:26.036Z,30.70
2018-01-04T06:58:54.140Z,29.65
2018-01-04T07:01:22.468Z,27.83
2018-01-04T07:03:50.132Z,27.27
2018-01-04T07:06:18.122Z,26.08
2018-01-04T07:08:45.908Z,25.60
2018-01-04T07:11:13.960Z,23.62
2018-01-04T07:13:41.575Z,25.30
2018-01-04T07:16:10.013Z,25.17
2018-01-04T07:18:38.062Z,24.83
2018-01-04T07:21:06.045Z,20.05
2018-01-04T07:23:33.957Z,19.48
2018-01-04T07:26:01.745Z,17.15
2018-01-04T07:28:30.255Z,16.37
2018-01-04T07:30:58.145Z,14.55
2018-01-04T07:33:25.993Z,15.30
2018-01-04T07:35:53.589Z,14.98
2018-01-04T07:38:21.419Z,13.43
2018-01-04T07:40:49.128Z,13.13
2018-01-04T07:43:17.392Z,15.35
2018-01-04T07:45:45.196Z,12.30
2018-01-04T07:48:13.127Z,12.85
2018-01-04T07:50:41.654Z,12.60
2018-01-04T07:53:09.324Z,11.63
2018-01-04T07:55:37.080Z,12.20
2018-01-04T07:58:04.789Z,11.90
2018-01-04T08:00:32.615Z,10.32
2018-01-04T08:03:00.453Z,10.77
2018-01-04T08:05:28.398Z,9.02
2018-01-04T08:07:56.259Z,8.93
2018-01-04T08:10:24.209Z,9.10
2018-01-04T08:12:52.004Z,9.35
2018-01-04T08:15:19.820Z,8.77
2018-01-04T08:17:48.114Z,9.75
2018-01-04T08:20:15.683Z,8.85
2018-01-04T08:22:43.345Z,8.45
2018-01-04T08:25:11.532Z,8.90
2018-01-04T08:27:39.146Z,6.62
2018-01-04T08:30:08.257Z,6.30
2018-01-04T08:32:36.668Z,5.30
2018-01-04T08:35:04.258Z,5.25
2018-01-04T08:37:31.903Z,5.37
2018-01-04T08:39:59.435Z,4.32
2018-01-04T08:42:26.989Z,3.55
2018-01-04T08:44:54.624Z,5.37
2018-01-04T08:47:22.736Z,5.50
2018-01-04T08:49:50.295Z,5.15
2018-01-04T08:52:17.871Z,5.03
2018-01-04T08:54:45.420Z,5.10
2018-01-04T08:57:13.023Z,5.80
2018-01-04T08:59:40.678Z,4.20
2018-01-04T09:02:08.346Z,4.68
2018-01-04T09:04:36.250Z,4.70
2018-01-04T09:07:03.901Z,5.12
2018-01-04T09:09:31.735Z,5.82
2018-01-04T09:11:59.354Z,5.72
2018-01-04T09:14:26.927Z,5.12
2018-01-04T09:16:54.644Z,5.62
2018-01-04T09:19:22.429Z,5.40
2018-01-04T09:21:50.182Z,5.68
2018-01-04T09:24:18.555Z,5.30
2018-01-04T09:26:46.696Z,6.18
2018-01-04T09:29:15.095Z,5.82
2018-01-04T09:31:42.702Z,6.35
2018-01-04T09:34:10.991Z,6.30
2018-01-04T09:36:38.926Z,6.70
2018-01-04T09:39:06.505Z,6.35
2018-01-04T09:41:34.322Z,6.43
2018-01-04T09:44:02.669Z,5.60
2018-01-04T09:46:30.298Z,5.95
2018-01-04T09:48:57.847Z,5.70
2018-01-04T09:51:26.504Z,6.23
2018-01-04T09:53:54.320Z,7.35
2018-01-04T09:56:21.846Z,6.70
2018-01-04T09:58:49.477Z,5.60
2018-01-04T10:01:17.783Z,5.90
2018-01-04T10:03:45.415Z,5.87
2018-01-04T10:06:13.884Z,5.63
2018-01-04T10:08:41.508Z,6.17
2018-01-04T10:11:09.151Z,6.93
2018-01-04T10:13:36.761Z,6.70
2018-01-04T10:16:04.342Z,6.33
2018-01-04T10:18:32.188Z,6.53
2018-01-04T10:21:00.678Z,7.07
2018-01-04T10:23:28.328Z,6.77
2018-01-04T10:25:56.033Z,6.10
2018-01-04T10:28:23.749Z,5.93
2018-01-04T10:30:51.805Z,6.13
2018-01-04T10:33:20.400Z,6.10
2018-01-04T10:35:48.072Z,5.60
2018-01-04T10:38:15.686Z,5.60
2018-01-04T10:40:44.210Z,6.37
2018-01-04T10:43:12.000Z,6.33
2018-01-04T10:45:39.658Z,7.70
2018-01-04T10:48:08.030Z,7.00
2018-01-04T10:50:36.026Z,7.10
2018-01-04T10:53:04.986Z,6.28
2018-01-04T10:55:32.699Z,6.60
2018-01-04T10:58:00.622Z,6.18
2018-01-04T11:00:29.119Z,5.55
2018-01-04T11:02:58.522Z,5.45
2018-01-04T11:05:27.020Z,6.50
2018-01-04T11:07:54.696Z,5.93
2018-01-04T11:10:22.365Z,6.25
2018-01-04T11:12:50.129Z,5.87
2018-01-04T11:15:18.642Z,5.62
2018-01-04T11:17:46.501Z,6.65
2018-01-04T11:20:14.154Z,6.83
2018-01-04T11:22:41.825Z,6.30
2018-01-04T11:25:10.446Z,8.15
2018-01-04T11:27:38.104Z,6.93
2018-01-04T11:30:08.275Z,7.25
2018-01-04T11:32:35.912Z,7.33
2018-01-04T11:35:04.708Z,8.57
2018-01-04T11:37:33.486Z,7.27
2018-01-04T11:40:01.109Z,7.10
2018-01-04T11:42:28.884Z,8.17
2018-01-04T11:44:57.694Z,7.70
2018-01-04T11:47:25.490Z,7.85
2018-01-04T11:49:53.798Z,7.00
2018-01-04T11:52:21.681Z,8.20
2018-01-04T11:54:49.351Z,7.95
2018-01-04T11:57:16.937Z,8.40
2018-01-04T11:59:44.798Z,7.93
2018-01-04T12:02:12.432Z,7.87
2018-01-04T12:04:40.028Z,7.93
2018-01-04T12:07:07.645Z,8.93
2018-01-04T12:09:36.075Z,8.70
2018-01-04T12:12:03.696Z,9.13
2018-01-04T12:14:31.309Z,8.68
2018-01-04T12:16:58.968Z,8.95
2018-01-04T12:19:26.570Z,7.32
2018-01-04T12:21:56.197Z,7.55
2018-01-04T12:24:23.827Z,6.40
2018-01-04T12:26:51.501Z,7.25
2018-01-04T12:29:19.916Z,9.47
2018-01-04T12:31:47.747Z,7.82
2018-01-04T12:34:15.349Z,8.48
2018-01-04T12:36:43.187Z,8.93
2018-01-04T12:39:10.803Z,8.00
2018-01-04T12:41:40.902Z,9.30
2018-01-04T12:44:08.535Z,9.75
2018-01-04T12:46:36.217Z,9.60
2018-01-04T12:49:03.834Z,9.30
2018-01-04T12:51:31.931Z,9.27
2018-01-04T12:54:00.265Z,9.20
2018-01-04T12:56:28.128Z,9.50
2018-01-04T12:58:55.948Z,11.25
2018-01-04T13:01:24.298Z,9.65
2018-01-04T13:03:52.103Z,10.65
2018-01-04T13:06:19.754Z,10.90
2018-01-04T13:08:47.369Z,9.40
2018-01-04T13:11:15.366Z,10.15
2018-01-04T13:13:43.298Z,10.02
2018-01-04T13:16:11.605Z,10.55
2018-01-04T13:18:39.167Z,9.05
2018-01-04T13:21:07.270Z,10.55
2018-01-04T13:23:35.234Z,9.75
2018-01-04T13:26:03.527Z,9.57
2018-01-04T13:28:31.186Z,9.45
2018-01-04T13:30:59.541Z,11.90
2018-01-04T13:33:30.751Z,10.15
2018-01-04T13:35:58.307Z,11.63
2018-01-04T13:38:26.152Z,9.75
2018-01-04T13:40:57.313Z,7.47
2018-01-04T13:43:24.952Z,9.40
2018-01-04T13:45:52.607Z,9.65
2018-01-04T13:48:20.402Z,9.48
2018-01-04T13:50:47.957Z,9.30
2018-01-04T13:53:15.629Z,10.18
2018-01-04T13:55:43.466Z,10.48
2018-01-04T13:58:11.087Z,10.55
2018-01-04T14:00:38.972Z,9.50
2018-01-04T14:03:06.793Z,9.50
2018-01-04T14:05:34.458Z,10.07
2018-01-04T14:08:02.092Z,9.30
2018-01-04T14:10:29.742Z,9.95
2018-01-04T14:12:57.564Z,11.40
2018-01-04T14:15:26.156Z,10.63
2018-01-04T14:17:57.253Z,9.75
2018-01-04T14:20:24.883Z,10.85
2018-01-04T14:46:59.613Z,8.45
2018-01-04T14:49:27.447Z,8.37
2018-01-04T14:51:55.058Z,7.40
2018-01-04T14:54:23.628Z,7.70
2018-01-04T14:56:51.347Z,8.20
2018-01-04T14:59:18.971Z,8.60
2018-01-04T15:01:46.596Z,10.02
2018-01-04T15:04:14.189Z,9.85
2018-01-04T15:06:41.976Z,8.52
2018-01-04T15:09:09.758Z,7.65
2018-01-04T15:11:37.410Z,9.93
2018-01-04T15:14:05.102Z,8.98
2018-01-04T15:16:33.046Z,9.43
2018-01-04T15:19:01.502Z,10.23
2018-01-04T15:21:29.227Z,9.45
2018-01-04T15:23:57.237Z,8.43
2018-01-04T15:26:24.915Z,10.80
2018-01-04T15:28:52.575Z,9.27
2018-01-04T15:31:20.344Z,9.93
2018-01-04T15:33:48.139Z,11.05
2018-01-04T15:36:15.735Z,9.70
2018-01-04T15:38:43.338Z,10.43
2018-01-04T15:41:11.110Z,11.50
2018-01-04T15:43:38.750Z,11.20
2018-01-04T15:46:07.568Z,13.27
2018-01-04T15:48:35.662Z,11.75
2018-01-04T15:51:04.236Z,12.02
2018-01-04T15:53:31.905Z,11.90
2018-01-04T15:55:59.557Z,11.73
2018-01-04T15:58:27.291Z,10.80
2018-01-04T16:00:54.948Z,10.90
2018-01-04T16:03:22.652Z,11.70
2018-01-04T16:05:50.279Z,11.35
2018-01-04T16:08:18.617Z,11.07
2018-01-04T16:10:46.292Z,11.18
2018-01-04T16:13:13.966Z,11.18
2018-01-04T16:15:41.707Z,10.68
2018-01-04T16:18:09.373Z,10.48
2018-01-04T16:20:37.259Z,11.77
2018-01-04T16:23:04.981Z,9.90
2018-01-04T16:25:33.131Z,10.68
2018-01-04T16:28:00.755Z,10.73
2018-01-04T16:30:28.484Z,11.80
2018-01-04T16:32:56.164Z,11.43
2018-01-04T16:35:23.933Z,11.88
2018-01-04T16:37:52.500Z,10.45
2018-01-04T16:40:20.108Z,12.02
2018-01-04T16:42:47.708Z,10.88
2018-01-04T16:45:24.107Z,13.77
2018-01-04T16:47:51.989Z,13.10
2018-01-04T16:50:19.748Z,11.48
2018-01-04T16:52:47.603Z,10.95
2018-01-04T16:55:15.365Z,9.88
2018-01-04T16:57:43.001Z,8.40
2018-01-04T17:00:11.481Z,9.45
2018-01-04T17:02:39.129Z,8.07
2018-01-04T17:05:06.725Z,7.90
2018-01-04T17:07:34.391Z,8.18
2018-01-04T17:10:02.805Z,8.65
2018-01-04T17:12:30.498Z,7.82
2018-01-04T17:14:58.206Z,8.27
2018-01-04T17:17:25.838Z,8.30
2018-01-04T17:19:53.468Z,7.57
2018-01-04T17:22:21.174Z,9.35
2018-01-04T17:24:49.164Z,9.45
2018-01-04T17:27:16.832Z,9.43
2018-01-04T17:29:45.370Z,11.48
2018-01-04T17:32:13.050Z,11.27
2018-01-04T17:34:40.690Z,13.57
2018-01-04T17:37:09.247Z,11.65
2018-01-04T17:39:37.923Z,12.35
2018-01-04T17:42:05.592Z,10.60
2018-01-04T17:44:33.287Z,10.60
2018-01-04T17:47:01.360Z,10.45
2018-01-04T17:49:29.036Z,12.23
2018-01-04T17:51:56.701Z,10.25
2018-01-04T17:54:24.458Z,10.63
2018-01-04T17:56:55.102Z,11.52
2018-01-04T17:59:23.671Z,14.02
2018-01-04T18:01:51.569Z,13.07
2018-01-04T18:04:19.478Z,12.20
2018-01-04T18:06:47.819Z,13.00
2018-01-04T18:09:15.560Z,13.18
2018-01-04T18:11:45.284Z,13.52
2018-01-04T18:14:12.982Z,12.95
2018-01-04T18:16:40.934Z,11.50
2018-01-04T18:19:09.173Z,12.60
2018-01-04T18:21:36.784Z,13.30
2018-01-04T18:24:03.754Z,12.50
2018-01-04T18:26:32.290Z,11.00
2018-01-04T18:29:00.313Z,11.50
2018-01-04T18:31:27.941Z,12.20
2018-01-04T18:33:55.820Z,11.27
2018-01-04T18:36:25.606Z,12.82
2018-01-04T18:38:53.424Z,12.25
2018-01-04T18:41:21.095Z,13.23
2018-01-04T18:43:48.836Z,12.57
2018-01-04T18:46:16.630Z,12.10
2018-01-04T18:48:44.291Z,12.37
2018-01-04T18:51:12.096Z,11.80
2018-01-04T18:53:39.846Z,11.45
2018-01-04T18:56:08.194Z,13.85
2018-01-04T18:58:35.882Z,15.93
2018-01-04T19:01:03.674Z,22.25
2018-01-04T19:03:31.293Z,30.75
2018-01-04T19:05:58.951Z,25.30
2018-01-04T19:08:26.728Z,26.23
2018-01-04T19:10:54.373Z,25.65
2018-01-04T19:13:22.708Z,24.85
2018-01-04T19:15:50.584Z,25.95
2018-01-04T19:18:18.652Z,24.42
2018-01-04T19:20:46.435Z,23.25
2018-01-04T19:23:14.170Z,22.58
2018-01-04T19:25:41.837Z,22.45
2018-01-04T19:28:09.781Z,22.05
2018-01-04T19:30:39.114Z,29.77
2018-01-04T19:33:07.722Z,33.15
2018-01-04T19:35:35.532Z,32.33
2018-01-04T19:38:03.136Z,30.35
2018-01-04T19:40:30.916Z,33.85
2018-01-04T19:42:59.570Z,36.13
2018-01-04T19:45:27.200Z,28.17
2018-01-04T19:47:54.822Z,29.37
2018-01-04T19:50:22.541Z,28.30
2018-01-04T19:52:51.188Z,26.17
2018-01-04T19:55:18.995Z,23.00
2018-01-04T19:57:48.162Z,26.50
2018-01-04T20:00:20.636Z,28.98
2018-01-04T20:02:48.913Z,33.60
2018-01-04T20:05:17.817Z,36.25
2018-01-04T20:07:45.866Z,42.20
2018-01-04T20:10:13.726Z,39.40
2018-01-04T20:12:43.534Z,45.28
2018-01-04T20:15:11.278Z,43.53
2018-01-04T20:17:40.056Z,36.15
2018-01-04T20:22:41.374Z,41.33
2018-01-04T20:25:09.110Z,49.05
2018-01-04T20:35:53.702Z,60.50
2018-01-04T20:38:21.379Z,59.90
2018-01-04T20:40:49.041Z,66.70
2018-01-04T20:43:16.708Z,79.25
2018-01-04T20:45:44.498Z,91.50
2018-01-04T20:48:12.459Z,90.68
2018-01-04T20:50:41.215Z,96.68
2018-01-04T20:53:09.831Z,75.47
2018-01-04T20:55:39.098Z,86.20
2018-01-04T20:58:07.102Z,61.28
2018-01-04T21:00:37.372Z,77.40
2018-01-04T21:03:05.783Z,84.30
2018-01-04T21:05:33.435Z,91.53
2018-01-04T21:08:01.373Z,91.15
2018-01-04T21:10:29.022Z,94.68
2018-01-04T21:12:56.833Z,92.72
2018-01-04T21:15:24.814Z,94.93
2018-01-04T21:17:53.468Z,91.05
2018-01-04T21:20:21.381Z,93.15
2018-01-04T21:22:49.115Z,105.37
2018-01-04T21:25:17.011Z,106.35
2018-01-04T21:27:44.820Z,111.72
2018-01-04T21:30:12.546Z,112.07
2018-01-04T21:32:40.314Z,115.95
2018-01-04T21:35:09.464Z,121.55
2018-01-04T21:37:37.170Z,127.38
2018-01-04T21:40:04.936Z,143.73
2018-01-04T21:42:32.653Z,136.02
2018-01-04T21:45:01.096Z,124.47
2018-01-04T21:47:28.889Z,117.65
2018-01-04T21:49:56.586Z,100.75
2018-01-04T21:52:24.250Z,115.10
2018-01-04T21:54:52.640Z,116.37
2018-01-04T21:57:20.614Z,108.82
2018-01-04T21:59:48.464Z,106.20
2018-01-04T22:02:16.170Z,107.80
2018-01-04T22:04:43.844Z,107.32
2018-01-04T22:07:11.806Z,116.57
2018-01-04T22:09:39.755Z,121.13
2018-01-04T22:12:07.635Z,118.43
2018-01-04T22:14:36.065Z,129.12
2018-01-04T22:17:03.751Z,123.80
2018-01-04T22:19:31.356Z,115.40
2018-01-04T22:21:59.029Z,118.85
2018-01-04T22:24:26.752Z,118.18
2018-01-04T22:26:54.395Z,118.25
2018-01-04T22:29:22.047Z,122.35
2018-01-04T22:31:49.717Z,151.68
2018-01-04T22:34:17.336Z,151.57
2018-01-04T22:36:44.905Z,140.90
2018-01-04T22:39:14.338Z,129.65
2018-01-04T22:41:42.724Z,111.72
2018-01-04T22:44:10.373Z,101.70
2018-01-04T22:46:37.979Z,99.30
2018-01-04T22:49:05.662Z,107.22
2018-01-04T22:51:33.255Z,110.22
2018-01-04T22:54:00.956Z,108.45
2018-01-04T22:56:28.572Z,108.93
2018-01-04T22:58:56.139Z,115.05
2018-01-04T23:01:24.042Z,118.78
2018-01-04T23:03:51.863Z,111.72
2018-01-04T23:06:19.651Z,107.60
2018-01-04T23:08:47.252Z,91.35
2018-01-04T23:11:15.362Z,82.47
2018-01-04T23:13:43.010Z,77.90
2018-01-04T23:16:10.933Z,78.50
2018-01-04T23:18:53.317Z,77.22
2018-01-04T23:21:21.674Z,68.53
2018-01-04T23:23:49.476Z,69.30
2018-01-04T23:26:17.114Z,61.25
2018-01-04T23:28:44.827Z,69.70
2018-01-04T23:31:12.436Z,68.87
2018-01-04T23:33:40.061Z,64.55
2018-01-04T23:36:08.824Z,64.70
2018-01-04T23:38:37.485Z,74.07
2018-01-04T23:41:06.508Z,93.00
2018-01-04T23:43:35.250Z,123.15
2018-01-04T23:46:02.917Z,119.45
2018-01-04T23:48:31.234Z,113.78
2018-01-04T23:50:58.910Z,120.55
2018-01-04T23:53:26.772Z,116.70
2018-01-04T23:55:54.428Z,169.05
2018-01-04T23:58:23.837Z,178.77
